createdAt,value
2022-11-16T00:01:45.803Z,11.55
2022-11-16T00:04:12.457Z,10.93
2022-11-16T00:06:39.802Z,11.45
2022-11-16T00:09:28.733Z,13.07
2022-11-16T00:12:04.956Z,11.25
2022-11-16T00:14:34.450Z,11.20
2022-11-16T00:17:01.704Z,11.40
2022-11-16T00:19:28.723Z,12.32
2022-11-16T00:21:55.435Z,11.70
2022-11-16T00:24:23.414Z,11.10
2022-11-16T00:26:51.214Z,11.25
2022-11-16T00:29:22.053Z,11.48
2022-11-16T00:31:49.777Z,11.07
2022-11-16T00:34:16.855Z,11.90
2022-11-16T00:36:46.975Z,11.05
2022-11-16T00:39:15.073Z,11.07
2022-11-16T00:41:43.139Z,11.68
2022-11-16T00:44:10.535Z,12.35
2022-11-16T00:46:39.382Z,11.55
2022-11-16T00:49:06.068Z,11.20
2022-11-16T00:51:33.610Z,11.48
2022-11-16T00:54:00.252Z,11.18
2022-11-16T00:56:26.912Z,11.52
2022-11-16T00:58:53.353Z,11.23
2022-11-16T01:01:19.989Z,10.95
2022-11-16T01:03:47.705Z,11.90
2022-11-16T01:06:15.467Z,12.35
2022-11-16T01:08:43.159Z,12.25
2022-11-16T01:11:31.228Z,12.98
2022-11-16T01:13:57.678Z,12.23
2022-11-16T01:16:24.501Z,12.65
2022-11-16T01:18:53.446Z,12.57
2022-11-16T01:21:21.228Z,11.95
2022-11-16T01:23:47.748Z,12.45
2022-11-16T01:26:14.438Z,12.50
2022-11-16T01:28:41.439Z,11.35
2022-11-16T01:31:09.100Z,11.50
2022-11-16T01:33:36.658Z,11.20
2022-11-16T01:36:05.899Z,11.20
2022-11-16T01:38:32.793Z,11.45
2022-11-16T01:40:59.397Z,11.80
2022-11-16T01:43:28.609Z,11.30
2022-11-16T01:45:55.078Z,11.48
2022-11-16T01:48:26.012Z,11.30
2022-11-16T01:50:55.090Z,11.43
2022-11-16T01:53:24.493Z,11.73
2022-11-16T01:55:51.378Z,11.65
2022-11-16T01:58:23.247Z,11.10
2022-11-16T02:00:50.305Z,11.35
2022-11-16T02:03:23.276Z,11.13
2022-11-16T02:06:34.912Z,11.18
2022-11-16T02:09:47.539Z,10.55
2022-11-16T02:12:45.693Z,11.27
2022-11-16T02:15:45.378Z,10.70
2022-11-16T02:18:14.729Z,11.02
2022-11-16T02:20:53.348Z,10.85
2022-11-16T02:23:35.176Z,10.32
2022-11-16T02:26:23.668Z,10.82
2022-11-16T02:29:08.887Z,10.18
2022-11-16T02:31:43.496Z,10.10
2022-11-16T02:34:12.871Z,10.50
2022-11-16T02:36:42.134Z,9.63
2022-11-16T02:39:15.150Z,10.27
2022-11-16T02:41:44.153Z,10.10
2022-11-16T02:44:31.828Z,9.95
2022-11-16T02:47:03.063Z,10.27
2022-11-16T02:49:33.439Z,9.82
2022-11-16T02:52:06.956Z,10.18
2022-11-16T02:54:33.417Z,9.35
2022-11-16T02:57:02.842Z,9.93
2022-11-16T02:59:42.701Z,9.90
2022-11-16T03:02:21.261Z,9.40
2022-11-16T03:04:51.475Z,8.80
2022-11-16T03:07:22.819Z,9.30
2022-11-16T03:09:51.711Z,9.27
2022-11-16T03:12:27.949Z,8.52
2022-11-16T03:14:58.942Z,8.68
2022-11-16T03:17:27.264Z,8.77
2022-11-16T03:20:02.528Z,8.50
2022-11-16T03:22:59.986Z,8.18
2022-11-16T03:25:32.330Z,8.35
2022-11-16T03:28:18.258Z,8.27
2022-11-16T03:30:52.563Z,8.43
2022-11-16T03:33:30.998Z,8.90
2022-11-16T03:36:09.536Z,8.10
2022-11-16T03:38:39.353Z,8.93
2022-11-16T03:41:08.400Z,9.88
2022-11-16T03:43:36.983Z,10.00
2022-11-16T03:46:04.766Z,10.07
2022-11-16T03:48:39.688Z,9.68
2022-11-16T03:51:10.963Z,9.80
2022-11-16T03:53:37.494Z,10.05
2022-11-16T03:56:04.353Z,9.98
2022-11-16T03:58:31.080Z,10.27
2022-11-16T04:00:57.787Z,9.65
2022-11-16T04:03:26.768Z,9.98
2022-11-16T04:06:11.826Z,9.65
2022-11-16T04:08:59.115Z,9.65
2022-11-16T04:11:44.493Z,10.00
2022-11-16T04:14:54.305Z,10.02
2022-11-16T04:17:42.600Z,10.25
2022-11-16T04:20:30.145Z,10.18
2022-11-16T04:23:27.515Z,9.68
2022-11-16T04:25:54.017Z,10.07
2022-11-16T04:28:25.660Z,10.63
2022-11-16T04:31:12.735Z,10.10
2022-11-16T04:34:00.687Z,11.00
2022-11-16T04:36:45.489Z,10.38
2022-11-16T04:39:11.995Z,10.20
2022-11-16T04:41:57.104Z,10.68
2022-11-16T04:44:27.391Z,10.45
2022-11-16T04:47:08.490Z,10.18
2022-11-16T04:49:35.059Z,10.32
2022-11-16T04:52:01.545Z,10.50
2022-11-16T04:54:27.996Z,10.85
2022-11-16T04:56:54.469Z,10.50
2022-11-16T04:59:20.989Z,10.07
2022-11-16T05:02:07.733Z,10.27
2022-11-16T05:04:37.757Z,9.93
2022-11-16T05:07:10.781Z,10.27
2022-11-16T05:09:43.203Z,9.95
2022-11-16T05:12:14.802Z,10.40
2022-11-16T05:14:44.474Z,10.32
2022-11-16T05:17:11.906Z,10.07
2022-11-16T05:19:57.141Z,9.68
2022-11-16T05:22:23.908Z,9.32
2022-11-16T05:24:52.795Z,9.65
2022-11-16T05:27:23.637Z,9.20
2022-11-16T05:29:50.775Z,9.40
2022-11-16T05:32:18.306Z,9.18
2022-11-16T05:34:44.964Z,8.95
2022-11-16T05:37:12.036Z,9.27
2022-11-16T05:39:39.095Z,9.63
2022-11-16T05:42:06.689Z,8.23
2022-11-16T05:44:33.756Z,10.25
2022-11-16T05:47:00.422Z,10.10
2022-11-16T05:49:27.117Z,10.02
2022-11-16T05:51:53.677Z,11.45
2022-11-16T05:54:23.239Z,9.10
2022-11-16T05:56:49.764Z,10.25
2022-11-16T05:59:18.412Z,14.82
2022-11-16T06:01:45.539Z,11.85
2022-11-16T06:04:12.910Z,10.45
2022-11-16T06:06:39.632Z,11.45
2022-11-16T06:09:06.591Z,10.73
2022-11-16T06:11:36.050Z,10.07
2022-11-16T06:14:03.118Z,10.45
2022-11-16T06:16:29.660Z,10.23
2022-11-16T06:18:56.258Z,10.60
2022-11-16T06:21:22.882Z,9.93
2022-11-16T06:23:49.512Z,10.57
2022-11-16T06:26:15.973Z,10.65
2022-11-16T06:28:42.495Z,9.80
2022-11-16T06:31:09.046Z,10.68
2022-11-16T06:33:37.827Z,10.10
2022-11-16T06:36:04.517Z,10.27
2022-11-16T06:38:31.340Z,10.38
2022-11-16T06:40:59.274Z,9.98
2022-11-16T06:43:29.608Z,10.88
2022-11-16T06:45:58.387Z,10.43
2022-11-16T06:48:27.350Z,10.63
2022-11-16T06:50:54.228Z,10.82
2022-11-16T06:53:27.539Z,11.32
2022-11-16T06:55:55.643Z,11.30
2022-11-16T06:58:24.347Z,11.32
2022-11-16T07:00:50.877Z,11.23
2022-11-16T07:03:19.778Z,10.73
2022-11-16T07:05:46.268Z,12.45
2022-11-16T07:08:12.809Z,13.68
2022-11-16T07:10:39.320Z,11.13
2022-11-16T07:13:06.375Z,12.65
2022-11-16T07:15:33.504Z,11.75
2022-11-16T07:18:05.009Z,12.95
2022-11-16T07:20:31.811Z,12.52
2022-11-16T07:23:04.641Z,12.75
2022-11-16T07:25:34.569Z,11.80
2022-11-16T07:28:01.023Z,11.20
2022-11-16T07:30:27.645Z,11.18
2022-11-16T07:32:58.960Z,11.25
2022-11-16T07:35:28.511Z,10.60
2022-11-16T07:37:54.932Z,10.18
2022-11-16T07:40:21.509Z,10.85
2022-11-16T07:42:50.219Z,10.15
2022-11-16T07:45:16.781Z,10.02
2022-11-16T07:47:43.326Z,9.50
2022-11-16T07:50:10.946Z,8.70
2022-11-16T07:52:37.608Z,10.57
2022-11-16T07:55:05.629Z,11.95
2022-11-16T07:57:32.106Z,11.65
2022-11-16T07:59:58.555Z,9.95
2022-11-16T08:02:25.165Z,12.10
2022-11-16T08:04:51.621Z,9.38
2022-11-16T08:07:18.967Z,11.63
2022-11-16T08:09:45.594Z,11.13
2022-11-16T08:12:13.021Z,10.95
2022-11-16T08:14:39.590Z,9.55
2022-11-16T08:17:07.303Z,9.82
2022-11-16T08:19:34.292Z,9.73
2022-11-16T08:22:00.770Z,8.95
2022-11-16T08:24:27.767Z,8.75
2022-11-16T08:26:58.822Z,8.50
2022-11-16T08:29:26.314Z,9.00
2022-11-16T08:31:53.614Z,10.05
2022-11-16T08:34:20.275Z,9.57
2022-11-16T08:36:46.994Z,10.57
2022-11-16T08:39:13.550Z,10.45
2022-11-16T08:41:42.106Z,10.68
2022-11-16T08:44:08.613Z,10.45
2022-11-16T08:46:35.159Z,10.65
2022-11-16T08:49:01.665Z,11.82
2022-11-16T08:51:28.122Z,11.05
2022-11-16T08:53:56.624Z,10.55
2022-11-16T08:56:23.127Z,10.05
2022-11-16T08:58:58.555Z,10.32
2022-11-16T09:01:27.593Z,9.90
2022-11-16T09:03:54.443Z,13.55
2022-11-16T09:06:21.531Z,21.83
2022-11-16T09:08:48.070Z,12.02
2022-11-16T09:11:18.218Z,11.27
2022-11-16T09:13:46.841Z,11.27
2022-11-16T09:16:16.476Z,11.93
2022-11-16T09:18:45.603Z,10.32
2022-11-16T09:21:12.114Z,8.95
2022-11-16T09:23:38.559Z,9.15
2022-11-16T09:26:06.024Z,8.27
2022-11-16T09:28:33.052Z,8.68
2022-11-16T09:31:02.131Z,9.48
2022-11-16T09:33:33.675Z,9.55
2022-11-16T09:36:07.119Z,9.05
2022-11-16T09:39:03.302Z,9.30
2022-11-16T09:41:34.965Z,8.70
2022-11-16T09:44:09.728Z,9.40
2022-11-16T09:46:44.142Z,8.80
2022-11-16T09:49:20.552Z,8.77
2022-11-16T09:51:52.995Z,9.68
2022-11-16T09:54:24.274Z,9.48
2022-11-16T09:56:56.802Z,9.45
2022-11-16T09:59:40.837Z,9.65
2022-11-16T10:04:58.131Z,8.40
2022-11-16T10:07:37.364Z,8.77
2022-11-16T10:10:04.167Z,8.57
2022-11-16T10:12:40.054Z,8.55
2022-11-16T10:15:34.115Z,8.63
2022-11-16T10:18:08.758Z,9.00
2022-11-16T10:20:59.126Z,8.18
2022-11-16T10:23:44.593Z,7.95
2022-11-16T10:26:34.842Z,7.63
2022-11-16T10:29:20.007Z,7.82
2022-11-16T10:31:58.622Z,7.40
2022-11-16T10:34:30.008Z,6.78
2022-11-16T10:37:03.411Z,7.13
2022-11-16T10:39:31.484Z,7.35
2022-11-16T10:42:07.445Z,7.05
2022-11-16T10:45:14.601Z,6.70
2022-11-16T10:48:19.659Z,6.97
2022-11-16T10:50:48.952Z,6.53
2022-11-16T10:53:26.763Z,7.22
2022-11-16T10:56:01.367Z,7.47
2022-11-16T10:58:55.480Z,6.65
2022-11-16T11:01:41.348Z,8.00
2022-11-16T11:04:17.167Z,7.53
2022-11-16T11:06:45.104Z,7.20
2022-11-16T11:09:34.471Z,7.97
2022-11-16T11:12:40.903Z,7.50
2022-11-16T11:15:27.053Z,6.47
2022-11-16T11:18:30.047Z,7.75
2022-11-16T11:21:19.280Z,7.75
2022-11-16T11:23:50.684Z,13.32
2022-11-16T11:26:35.838Z,16.70
2022-11-16T11:29:26.665Z,12.07
2022-11-16T11:31:57.905Z,9.10
2022-11-16T11:34:28.741Z,8.05
2022-11-16T11:37:00.843Z,7.40
2022-11-16T11:39:36.527Z,6.95
2022-11-16T11:42:06.296Z,7.32
2022-11-16T11:44:57.190Z,6.70
2022-11-16T11:50:13.292Z,7.38
2022-11-16T11:52:50.014Z,9.65
2022-11-16T11:55:18.451Z,8.43
2022-11-16T11:57:47.665Z,9.20
2022-11-16T12:00:15.697Z,10.43
2022-11-16T12:03:09.330Z,8.57
2022-11-16T12:05:44.919Z,8.27
2022-11-16T12:08:28.094Z,8.38
2022-11-16T12:11:10.053Z,7.90
2022-11-16T12:13:51.023Z,7.70
2022-11-16T12:16:33.520Z,8.43
2022-11-16T12:19:15.416Z,7.43
2022-11-16T12:22:26.728Z,8.35
2022-11-16T12:25:01.892Z,11.25
2022-11-16T12:27:49.167Z,11.18
2022-11-16T12:30:21.334Z,9.80
2022-11-16T12:33:14.105Z,9.85
2022-11-16T12:35:48.639Z,8.88
2022-11-16T12:38:26.040Z,8.38
2022-11-16T12:41:14.461Z,8.20
2022-11-16T12:43:50.083Z,8.75
2022-11-16T12:46:28.691Z,9.75
2022-11-16T12:49:16.847Z,8.70
2022-11-16T12:52:04.860Z,8.80
2022-11-16T12:55:26.701Z,11.23
2022-11-16T12:58:11.066Z,15.43
2022-11-16T13:01:27.281Z,14.52
2022-11-16T13:04:01.355Z,13.32
2022-11-16T13:06:46.060Z,12.50
2022-11-16T13:09:36.351Z,12.35
2022-11-16T13:12:14.189Z,11.65
2022-11-16T13:14:45.151Z,10.70
2022-11-16T13:17:23.585Z,11.60
2022-11-16T13:20:19.475Z,11.80
2022-11-16T13:22:55.846Z,11.32
2022-11-16T13:25:45.941Z,12.30
2022-11-16T13:28:23.515Z,10.98
2022-11-16T13:31:16.285Z,11.18
2022-11-16T13:33:50.636Z,11.85
2022-11-16T13:36:37.123Z,15.10
2022-11-16T13:39:05.895Z,13.98
2022-11-16T13:41:36.903Z,13.38
2022-11-16T13:44:25.937Z,13.68
2022-11-16T13:47:04.345Z,13.05
2022-11-16T13:49:33.666Z,12.02
2022-11-16T13:52:22.095Z,12.50
2022-11-16T13:54:55.446Z,13.55
2022-11-16T13:57:34.036Z,13.13
2022-11-16T14:00:00.540Z,13.40
2022-11-16T14:02:31.740Z,12.95
2022-11-16T14:05:09.346Z,13.40
2022-11-16T14:07:44.761Z,13.35
2022-11-16T14:10:33.907Z,14.25
2022-11-16T14:13:05.224Z,19.48
2022-11-16T14:15:38.799Z,19.20
2022-11-16T14:18:09.246Z,16.33
2022-11-16T14:21:25.694Z,15.90
2022-11-16T14:23:58.028Z,15.73
2022-11-16T14:26:40.327Z,14.57
2022-11-16T14:29:20.624Z,15.05
2022-11-16T14:31:52.476Z,15.88
2022-11-16T14:34:23.481Z,18.80
2022-11-16T14:36:50.728Z,19.40
2022-11-16T14:39:26.641Z,18.20
2022-11-16T14:41:53.859Z,17.48
2022-11-16T14:44:24.526Z,16.25
2022-11-16T14:46:52.068Z,15.05
2022-11-16T14:49:20.416Z,17.35
2022-11-16T14:51:53.885Z,23.52
2022-11-16T14:54:42.183Z,20.60
2022-11-16T14:57:18.786Z,15.88
2022-11-16T14:59:45.374Z,18.30
2022-11-16T15:02:22.567Z,16.30
2022-11-16T15:04:51.377Z,15.43
2022-11-16T15:07:19.489Z,14.82
2022-11-16T15:09:57.184Z,14.43
2022-11-16T15:12:42.100Z,16.55
2022-11-16T15:15:11.652Z,15.35
2022-11-16T15:17:40.569Z,13.50
2022-11-16T15:20:35.501Z,12.80
2022-11-16T15:23:04.080Z,13.00
2022-11-16T15:25:36.947Z,13.52
2022-11-16T15:28:49.766Z,12.87
2022-11-16T15:31:16.911Z,13.52
2022-11-16T15:33:45.585Z,12.88
2022-11-16T15:36:23.449Z,12.45
2022-11-16T15:38:54.779Z,13.95
2022-11-16T15:41:23.158Z,16.45
2022-11-16T15:44:13.538Z,18.08
2022-11-16T15:46:44.493Z,18.88
2022-11-16T15:49:31.360Z,22.42
2022-11-16T15:52:01.738Z,22.23
2022-11-16T15:55:05.687Z,19.98
2022-11-16T15:57:32.360Z,19.30
2022-11-16T15:59:58.950Z,21.33
2022-11-16T16:02:32.666Z,21.27
2022-11-16T16:05:00.337Z,24.13
2022-11-16T16:07:41.273Z,22.20
2022-11-16T16:10:20.063Z,21.55
2022-11-16T16:12:50.695Z,22.13
2022-11-16T16:15:24.100Z,23.90
2022-11-16T16:17:53.206Z,22.23
2022-11-16T16:20:24.797Z,22.05
2022-11-16T16:22:52.072Z,18.20
2022-11-16T16:25:30.850Z,18.00
2022-11-16T16:27:58.882Z,16.17
2022-11-16T16:30:28.135Z,17.67
2022-11-16T16:32:54.963Z,28.88
2022-11-16T16:35:23.823Z,55.42
2022-11-16T16:37:55.933Z,35.60
2022-11-16T16:40:22.612Z,29.45
2022-11-16T16:42:49.238Z,23.40
2022-11-16T16:45:19.826Z,19.77
2022-11-16T16:47:46.801Z,23.20
2022-11-16T16:50:13.897Z,21.85
2022-11-16T16:52:40.503Z,20.73
2022-11-16T16:55:07.521Z,21.90
2022-11-16T16:57:34.159Z,22.25
2022-11-16T17:00:00.756Z,23.58
2022-11-16T17:02:27.654Z,23.33
2022-11-16T17:04:54.239Z,23.67
2022-11-16T17:07:20.904Z,25.67
2022-11-16T17:09:47.451Z,21.73
2022-11-16T17:12:14.008Z,22.30
2022-11-16T17:14:40.529Z,22.52
2022-11-16T17:17:07.208Z,25.25
2022-11-16T17:19:33.912Z,24.90
2022-11-16T17:22:02.527Z,24.33
2022-11-16T17:24:29.060Z,33.28
2022-11-16T17:26:55.579Z,31.88
2022-11-16T17:29:22.265Z,32.88
2022-11-16T17:31:48.931Z,21.77
2022-11-16T17:34:15.668Z,18.98
2022-11-16T17:36:44.139Z,18.52
2022-11-16T17:39:11.032Z,19.52
2022-11-16T17:41:37.946Z,20.80
2022-11-16T17:44:05.322Z,21.20
2022-11-16T17:46:32.385Z,22.70
2022-11-16T17:48:59.331Z,21.08
2022-11-16T17:51:26.665Z,19.70
2022-11-16T17:53:53.778Z,19.85
2022-11-16T17:56:22.394Z,19.52
2022-11-16T17:58:52.357Z,19.00
2022-11-16T18:01:19.400Z,19.17
2022-11-16T18:03:46.202Z,19.05
2022-11-16T18:06:21.309Z,19.77
2022-11-16T18:08:48.669Z,23.17
2022-11-16T18:11:17.969Z,30.58
2022-11-16T18:13:46.690Z,44.13
2022-11-16T18:16:15.964Z,39.60
2022-11-16T18:18:44.001Z,30.83
2022-11-16T18:21:15.888Z,21.05
2022-11-16T18:23:46.567Z,21.88
2022-11-16T18:26:15.712Z,19.13
2022-11-16T18:28:44.809Z,17.58
2022-11-16T18:31:14.367Z,19.23
2022-11-16T18:33:43.801Z,17.10
2022-11-16T18:36:12.636Z,17.45
2022-11-16T18:38:39.678Z,16.55
2022-11-16T18:41:12.325Z,21.83
2022-11-16T18:43:49.372Z,33.95
2022-11-16T18:46:17.231Z,53.75
2022-11-16T18:48:44.051Z,31.00
2022-11-16T18:51:11.410Z,17.30
2022-11-16T18:53:38.637Z,25.13
2022-11-16T18:56:05.976Z,15.45
2022-11-16T18:58:49.760Z,13.80
2022-11-16T19:01:18.127Z,12.32
2022-11-16T19:03:45.550Z,12.40
2022-11-16T19:06:12.509Z,10.45
2022-11-16T19:08:41.408Z,10.10
2022-11-16T19:11:14.352Z,24.40
2022-11-16T19:13:42.696Z,15.70
2022-11-16T19:16:11.084Z,10.35
2022-11-16T19:18:38.535Z,9.43
2022-11-16T19:21:14.449Z,8.68
2022-11-16T19:23:51.995Z,8.23
2022-11-16T19:26:21.077Z,9.02
2022-11-16T19:28:49.437Z,9.07
2022-11-16T19:31:31.409Z,9.73
2022-11-16T19:34:04.756Z,9.40
2022-11-16T19:36:35.274Z,10.20
2022-11-16T19:39:02.645Z,8.02
2022-11-16T19:41:29.634Z,11.35
2022-11-16T19:44:00.206Z,8.57
2022-11-16T19:46:30.566Z,8.35
2022-11-16T19:48:57.565Z,11.38
2022-11-16T19:51:32.499Z,23.02
2022-11-16T19:54:02.931Z,27.17
2022-11-16T19:56:30.667Z,35.72
2022-11-16T19:58:57.749Z,27.48
2022-11-16T20:01:28.211Z,16.88
2022-11-16T20:03:56.931Z,16.10
2022-11-16T20:06:42.872Z,13.15
2022-11-16T20:09:13.333Z,17.08
2022-11-16T20:11:41.825Z,18.13
2022-11-16T20:14:11.714Z,17.27
2022-11-16T20:16:40.798Z,15.80
2022-11-16T20:19:10.688Z,12.85
2022-11-16T20:21:40.172Z,14.60
2022-11-16T20:24:11.204Z,14.55
2022-11-16T20:26:43.639Z,11.90
2022-11-16T20:29:15.006Z,14.18
2022-11-16T20:31:50.928Z,13.82
2022-11-16T20:34:22.126Z,14.07
2022-11-16T20:36:51.065Z,23.17
2022-11-16T20:39:22.133Z,28.05
2022-11-16T20:41:49.168Z,22.67
2022-11-16T20:44:22.611Z,19.40
2022-11-16T20:46:52.575Z,18.83
2022-11-16T20:49:19.391Z,19.10
2022-11-16T20:51:47.796Z,17.45
2022-11-16T20:54:14.682Z,15.57
2022-11-16T20:56:41.396Z,15.98
2022-11-16T20:59:10.635Z,13.38
2022-11-16T21:01:37.471Z,13.30
2022-11-16T21:04:05.707Z,13.25
2022-11-16T21:06:33.786Z,12.88
2022-11-16T21:09:00.942Z,15.20
2022-11-16T21:11:30.245Z,17.42
2022-11-16T21:14:16.159Z,15.80
2022-11-16T21:16:43.512Z,15.13
2022-11-16T21:19:10.933Z,15.98
2022-11-16T21:21:38.774Z,14.90
2022-11-16T21:24:05.651Z,14.35
2022-11-16T21:26:33.854Z,16.38
2022-11-16T21:29:01.913Z,15.68
2022-11-16T21:31:33.664Z,15.10
2022-11-16T21:34:03.312Z,15.02
2022-11-16T21:36:32.099Z,15.75
2022-11-16T21:39:00.258Z,14.60
2022-11-16T21:41:29.469Z,14.98
2022-11-16T21:43:56.172Z,14.82
2022-11-16T21:46:25.760Z,13.88
2022-11-16T21:48:54.233Z,13.65
2022-11-16T21:51:23.182Z,16.10
2022-11-16T21:53:49.781Z,16.20
2022-11-16T21:56:18.565Z,18.17
2022-11-16T21:58:45.719Z,15.95
2022-11-16T22:01:14.003Z,15.30
2022-11-16T22:03:40.654Z,15.70
2022-11-16T22:06:29.754Z,14.52
2022-11-16T22:08:58.821Z,14.70
2022-11-16T22:11:28.735Z,16.20
2022-11-16T22:13:55.357Z,16.25
2022-11-16T22:16:24.891Z,14.75
2022-11-16T22:18:51.455Z,13.27
2022-11-16T22:21:18.069Z,15.75
2022-11-16T22:23:45.171Z,25.55
2022-11-16T22:26:13.413Z,28.95
2022-11-16T22:28:40.634Z,15.02
2022-11-16T22:31:10.502Z,13.73
2022-11-16T22:33:37.657Z,14.13
2022-11-16T22:36:05.222Z,15.90
2022-11-16T22:38:31.916Z,15.48
2022-11-16T22:40:58.525Z,14.57
2022-11-16T22:43:27.685Z,13.80
2022-11-16T22:45:58.971Z,14.20
2022-11-16T22:48:36.647Z,12.60
2022-11-16T22:51:07.665Z,12.90
2022-11-16T22:53:35.122Z,13.40
2022-11-16T22:56:09.319Z,13.23
2022-11-16T22:58:37.055Z,14.93
2022-11-16T23:01:04.883Z,14.18
2022-11-16T23:03:31.825Z,14.35
2022-11-16T23:06:01.212Z,14.45
2022-11-16T23:08:28.148Z,14.77
2022-11-16T23:11:23.491Z,13.98
2022-11-16T23:14:09.882Z,14.35
2022-11-16T23:16:36.776Z,15.48
2022-11-16T23:19:03.582Z,15.52
2022-11-16T23:21:48.866Z,16.88
2022-11-16T23:24:34.376Z,15.05
2022-11-16T23:27:22.654Z,14.77
2022-11-16T23:29:49.651Z,13.23
2022-11-16T23:32:16.358Z,13.30
2022-11-16T23:34:42.859Z,13.57
2022-11-16T23:37:09.399Z,13.88
2022-11-16T23:39:35.901Z,14.05
2022-11-16T23:42:21.185Z,13.38
2022-11-16T23:44:47.696Z,12.70
2022-11-16T23:47:14.311Z,11.88
2022-11-16T23:49:40.824Z,11.13
2022-11-16T23:52:07.588Z,11.68
2022-11-16T23:54:34.140Z,11.70
2022-11-16T23:57:00.731Z,13.35
2022-11-16T23:59:27.584Z,11.57
